Howe, ID (83244)

3:36 AM MDT on August 28, 2015 (GMT -0600)
Friedman Memorial | | Change Station
CLOSE
Current Station
Airport
Location: Hailey,
Elevation: 5315 ft
Nearby Weather Stations
Active Advisory: Fire Weather Watch

Elev 5315 ft 43.50 °N, 114.30 °W | Updated 21 minutes ago

Clear
Clear
59 °F
Feels Like 59 °F
N
13
Wind Variable Wind from NW

Today
High -- | Low -- °F
--% Chance of Precip.
Yesterday
High -- | Low -- °F
Precip. -- in
6:51 AM 8:15 PM
Waxing Gibbous, 97% visible
Pressure 30.24 in
Visibility 10.0 miles
Clouds Clear
Dew Point 37 °F
Humidity 45%
Rainfall 0.00 in
Snow Depth Not available.
UV 0 out of 12
Pollen 7.90 out of 12
Air Quality Not available.
Flu Activity Not available.
METAR KSUN 280915Z AUTO 31011KT 10SM CLR 15/03 A3024 RMK AO2
Pressure 30.24 in
Visibility 10.0 miles
Clouds Clear
Dew Point 37 °F
Humidity 45%
Rainfall 0.00 in
Snow Depth Not available.
UV 0 out of 12
Pollen 7.90 out of 12
Air Quality Not available.
Flu Activity Not available.
METAR KSUN 280915Z AUTO 31011KT 10SM CLR 15/03 A3024 RMK AO2

10-Day Weather Forecast

×

Almanac

Astronomy

Aug. 28, 2015 Rise Set
Actual Time
Civil Twilight
Nautical Twilight
Astronomical Twilight
Moon
Length of Visible Light
Length of Day
Tomorrow will be .
, % of the Moon is Illuminated

Today's Extremes

State Highs State Lows

Community

WunderPhotos

Upload Photos

1,850,352 photos uploaded!

WunderBlogs® & News

Nearby

Air Quality

  Air Quality AQ Index Pollutant
Not available.

Snow Depth

Station Depth Elevation

Earthquake Activity

City Distance Mag. Time & Date
Minimum magnitude displayed is 2.5.

Coastal Water Temperatures

Place Temperature

Stations

Nearby Weather Stations

Station Location Temp. Windchill Dew Point Humidity Wind Precip. Elev Updated Type
                   
Fire Weather Watch
Statement as of 3:35 AM MDT on August 28, 2015

... Fire Weather Watch in effect from Saturday afternoon through
Saturday evening for gusty winds and low humidity for Idaho fire
weather zones 475 and 476...

The National Weather Service in Pocatello has issued a Fire
Weather Watch... which is in effect from Saturday afternoon
through Saturday evening.

* Affected area... Idaho fire weather zones 475 and 476.

* Wind... southwest winds of 15 to 25 mph with gusts of 30 to 40
mph in the afternoon.

* Humidity... 15 to 20 percent.

* Thunderstorms... isolated thunderstorms are possible.

* Impacts... any fires that develop will likely spread rapidly.
Outdoor burning is not recommended.

Precautionary/preparedness actions...

A Fire Weather Watch means that critical fire weather conditions
are forecast to occur. Listen for later forecasts and possible
red flag warnings.